createdAt,value
2022-12-04T00:01:41.754Z,28.37
2022-12-04T00:04:10.651Z,30.03
2022-12-04T00:06:38.155Z,29.73
2022-12-04T00:09:05.833Z,28.57
2022-12-04T00:11:34.053Z,27.77
2022-12-04T00:14:07.014Z,29.93
2022-12-04T00:16:35.679Z,29.83
2022-12-04T00:19:03.641Z,29.57
2022-12-04T00:21:32.864Z,29.27
2022-12-04T00:24:00.278Z,28.67
2022-12-04T00:26:31.218Z,28.53
2022-12-04T00:28:59.247Z,28.43
2022-12-04T00:31:28.893Z,27.87
2022-12-04T00:33:56.405Z,29.03
2022-12-04T00:36:26.931Z,26.97
2022-12-04T00:38:55.945Z,28.47
2022-12-04T00:41:25.204Z,28.17
2022-12-04T00:43:53.189Z,28.63
2022-12-04T00:46:21.029Z,28.33
2022-12-04T00:48:48.833Z,27.60
2022-12-04T00:51:17.811Z,28.13
2022-12-04T00:53:45.704Z,28.43
2022-12-04T00:56:18.697Z,28.47
2022-12-04T00:58:47.003Z,27.80
2022-12-04T01:01:16.363Z,28.27
2022-12-04T01:03:44.294Z,28.63
2022-12-04T01:06:18.444Z,26.17
2022-12-04T01:08:45.863Z,29.33
2022-12-04T01:11:14.631Z,30.17
2022-12-04T01:13:42.149Z,28.33
2022-12-04T01:16:09.731Z,28.90
2022-12-04T01:18:37.159Z,29.23
2022-12-04T01:21:04.671Z,28.57
2022-12-04T01:23:32.129Z,29.00
2022-12-04T01:25:59.799Z,29.40
2022-12-04T01:28:28.532Z,28.47
2022-12-04T01:31:00.972Z,29.37
2022-12-04T01:33:28.528Z,26.73
2022-12-04T01:35:56.841Z,29.00
2022-12-04T01:38:26.902Z,28.50
2022-12-04T01:40:54.831Z,28.60
2022-12-04T01:43:22.646Z,29.00
2022-12-04T01:45:53.137Z,29.53
2022-12-04T01:48:25.064Z,29.00
2022-12-04T01:50:56.863Z,28.53
2022-12-04T01:53:24.322Z,28.63
2022-12-04T01:55:51.871Z,28.53
2022-12-04T01:58:24.879Z,30.20
2022-12-04T02:00:58.505Z,30.10
2022-12-04T02:03:26.584Z,30.17
2022-12-04T02:05:53.999Z,29.50
2022-12-04T02:08:21.456Z,29.77
2022-12-04T02:10:53.014Z,26.77
2022-12-04T02:13:25.939Z,29.17
2022-12-04T02:15:58.879Z,28.83
2022-12-04T02:18:31.270Z,26.70
2022-12-04T02:21:01.592Z,28.10
2022-12-04T02:24:01.952Z,28.57
2022-12-04T02:26:38.511Z,26.77
2022-12-04T02:29:11.695Z,27.73
2022-12-04T02:31:44.016Z,25.60
2022-12-04T02:34:16.702Z,28.10
2022-12-04T02:36:52.123Z,29.13
2022-12-04T02:39:23.356Z,28.83
2022-12-04T02:41:56.779Z,28.73
2022-12-04T02:44:27.835Z,26.40
2022-12-04T02:46:58.697Z,27.07
2022-12-04T02:49:30.035Z,27.23
2022-12-04T02:51:58.581Z,26.13
2022-12-04T02:54:29.664Z,24.67
2022-12-04T02:57:01.532Z,23.63
2022-12-04T02:59:36.655Z,25.93
2022-12-04T03:02:09.546Z,25.10
2022-12-04T03:04:40.000Z,23.10
2022-12-04T03:07:13.386Z,24.00
2022-12-04T03:09:44.110Z,26.20
2022-12-04T03:12:16.107Z,25.63
2022-12-04T03:14:48.880Z,24.07
2022-12-04T03:17:18.291Z,22.50
2022-12-04T03:19:48.740Z,22.10
2022-12-04T03:22:19.555Z,22.83
2022-12-04T03:24:49.668Z,23.73
2022-12-04T03:27:22.856Z,23.13
2022-12-04T03:29:54.962Z,23.80
2022-12-04T03:32:27.262Z,23.27
2022-12-04T03:34:58.942Z,23.73
2022-12-04T03:37:32.844Z,23.03
2022-12-04T03:40:04.945Z,22.93
2022-12-04T03:42:36.923Z,22.27
2022-12-04T03:45:10.609Z,23.47
2022-12-04T03:47:43.076Z,24.83
2022-12-04T03:50:14.781Z,22.63
2022-12-04T03:52:49.324Z,22.63
2022-12-04T03:55:22.474Z,24.17
2022-12-04T03:57:50.711Z,23.30
2022-12-04T04:00:22.151Z,24.13
2022-12-04T04:02:55.780Z,24.33
2022-12-04T04:05:23.879Z,23.23
2022-12-04T04:07:53.753Z,24.33
2022-12-04T04:10:28.479Z,23.50
2022-12-04T04:13:19.046Z,23.27
2022-12-04T04:16:08.175Z,23.70
2022-12-04T04:18:53.771Z,23.17
2022-12-04T04:21:42.116Z,22.43
2022-12-04T04:24:31.782Z,22.93
2022-12-04T04:27:01.770Z,21.67
2022-12-04T04:29:31.984Z,20.20
2022-12-04T04:32:04.803Z,22.43
2022-12-04T04:34:40.172Z,20.70
2022-12-04T04:37:12.220Z,22.00
2022-12-04T04:39:43.670Z,21.70
2022-12-04T04:42:16.131Z,22.83
2022-12-04T04:44:47.446Z,19.67
2022-12-04T04:47:19.889Z,20.77
2022-12-04T04:49:48.415Z,18.90
2022-12-04T04:52:16.239Z,20.90
2022-12-04T04:54:44.300Z,20.97
2022-12-04T04:57:11.740Z,20.87
2022-12-04T04:59:39.136Z,20.30
2022-12-04T05:02:06.698Z,20.83
2022-12-04T05:04:35.547Z,21.30
2022-12-04T05:07:02.995Z,19.47
2022-12-04T05:09:30.379Z,18.97
2022-12-04T05:11:57.806Z,19.77
2022-12-04T05:14:25.228Z,20.13
2022-12-04T05:16:52.696Z,19.30
2022-12-04T05:19:37.416Z,21.30
2022-12-04T05:22:06.209Z,19.33
2022-12-04T05:24:33.632Z,18.97
2022-12-04T05:27:01.101Z,19.67
2022-12-04T05:29:31.619Z,19.70
2022-12-04T05:32:03.028Z,17.60
2022-12-04T05:34:31.349Z,20.40
2022-12-04T05:36:58.763Z,19.43
2022-12-04T05:39:28.487Z,20.73
2022-12-04T05:41:55.904Z,20.03
2022-12-04T05:44:23.346Z,18.83
2022-12-04T05:46:50.838Z,19.13
2022-12-04T05:49:18.309Z,14.70
2022-12-04T05:51:45.714Z,19.73
2022-12-04T05:54:13.166Z,18.30
2022-12-04T05:56:42.067Z,19.10
2022-12-04T05:59:09.564Z,18.07
2022-12-04T06:01:37.036Z,19.80
2022-12-04T06:04:04.679Z,19.13
2022-12-04T06:06:32.094Z,19.57
2022-12-04T06:09:00.679Z,19.57
2022-12-04T06:11:29.814Z,17.53
2022-12-04T06:13:59.765Z,20.50
2022-12-04T06:16:29.083Z,18.87
2022-12-04T06:18:58.272Z,18.47
2022-12-04T06:21:26.856Z,19.60
2022-12-04T06:23:54.807Z,20.47
2022-12-04T06:26:23.275Z,20.33
2022-12-04T06:28:50.684Z,19.87
2022-12-04T06:31:19.808Z,20.33
2022-12-04T06:33:47.418Z,20.27
2022-12-04T06:36:16.454Z,20.43
2022-12-04T06:38:44.318Z,19.83
2022-12-04T06:41:13.513Z,19.37
2022-12-04T06:43:41.217Z,20.57
2022-12-04T06:46:11.188Z,20.17
2022-12-04T06:48:40.267Z,19.40
2022-12-04T06:51:09.724Z,19.87
2022-12-04T06:53:37.663Z,20.20
2022-12-04T06:56:07.503Z,20.23
2022-12-04T06:58:35.119Z,20.93
2022-12-04T07:01:07.355Z,19.93
2022-12-04T07:03:35.375Z,21.00
2022-12-04T07:06:13.096Z,20.00
2022-12-04T07:08:40.630Z,21.03
2022-12-04T07:11:08.312Z,21.10
2022-12-04T07:13:35.788Z,20.53
2022-12-04T07:16:04.163Z,21.47
2022-12-04T07:18:32.376Z,20.63
2022-12-04T07:21:00.046Z,21.37
2022-12-04T07:23:28.768Z,20.80
2022-12-04T07:25:56.196Z,21.03
2022-12-04T07:28:23.610Z,21.23
2022-12-04T07:30:51.062Z,21.07
2022-12-04T07:33:18.510Z,20.33
2022-12-04T07:35:45.947Z,20.93
2022-12-04T07:38:13.339Z,21.00
2022-12-04T07:40:42.079Z,21.60
2022-12-04T07:43:09.517Z,22.10
2022-12-04T07:45:37.866Z,20.43
2022-12-04T07:48:06.001Z,21.10
2022-12-04T07:50:33.423Z,20.53
2022-12-04T07:53:00.824Z,21.23
2022-12-04T07:55:28.252Z,21.83
2022-12-04T07:57:56.995Z,20.63
2022-12-04T08:00:24.744Z,20.97
2022-12-04T08:02:52.217Z,21.97
2022-12-04T08:05:19.829Z,22.27
2022-12-04T08:07:47.289Z,22.07
2022-12-04T08:10:15.206Z,23.00
2022-12-04T08:12:42.755Z,22.07
2022-12-04T08:15:12.218Z,21.23
2022-12-04T08:17:41.329Z,21.50
2022-12-04T08:20:09.667Z,20.77
2022-12-04T08:22:37.122Z,22.00
2022-12-04T08:25:04.832Z,21.17
2022-12-04T08:27:32.240Z,21.17
2022-12-04T08:29:59.719Z,22.00
2022-12-04T08:32:28.464Z,22.23
2022-12-04T08:34:56.215Z,22.07
2022-12-04T08:37:23.687Z,23.20
2022-12-04T08:39:51.084Z,22.47
2022-12-04T08:42:18.499Z,24.57
2022-12-04T08:44:46.622Z,21.87
2022-12-04T08:47:15.151Z,23.87
2022-12-04T08:49:43.875Z,23.10
2022-12-04T08:52:11.516Z,22.30
2022-12-04T08:54:38.947Z,24.83
2022-12-04T08:57:06.387Z,24.30
2022-12-04T08:59:33.870Z,23.70
2022-12-04T09:02:02.394Z,24.50
2022-12-04T09:04:30.155Z,24.47
2022-12-04T09:06:58.930Z,23.03
2022-12-04T09:09:26.386Z,24.50
2022-12-04T09:11:53.835Z,24.33
2022-12-04T09:14:25.762Z,25.27
2022-12-04T09:16:53.634Z,23.33
2022-12-04T09:19:21.397Z,25.17
2022-12-04T09:21:48.823Z,25.73
2022-12-04T09:24:17.901Z,25.83
2022-12-04T09:26:45.323Z,26.03
2022-12-04T09:29:13.008Z,24.93
2022-12-04T09:31:40.495Z,26.50
2022-12-04T09:34:07.941Z,26.40
2022-12-04T09:36:35.358Z,26.33
2022-12-04T09:39:02.996Z,27.20
2022-12-04T09:42:05.666Z,26.37
2022-12-04T09:44:37.183Z,25.27
2022-12-04T09:47:08.637Z,27.73
2022-12-04T09:49:39.607Z,25.17
2022-12-04T09:52:10.500Z,27.37
2022-12-04T09:54:41.305Z,26.03
2022-12-04T09:57:16.776Z,26.97
2022-12-04T09:59:45.898Z,26.60
2022-12-04T10:02:28.715Z,26.57
2022-12-04T10:04:56.752Z,27.47
2022-12-04T10:07:27.820Z,27.63
2022-12-04T10:09:58.973Z,30.43
2022-12-04T10:12:30.795Z,27.53
2022-12-04T10:15:06.990Z,28.40
2022-12-04T10:17:56.600Z,28.83
2022-12-04T10:20:37.535Z,28.30
2022-12-04T10:23:13.525Z,29.87
2022-12-04T10:25:41.824Z,24.50
2022-12-04T10:28:16.124Z,25.03
2022-12-04T10:34:06.399Z,30.83
2022-12-04T10:36:35.936Z,28.77
2022-12-04T10:39:06.528Z,29.63
2022-12-04T10:41:39.826Z,30.33
2022-12-04T10:44:07.282Z,30.00
2022-12-04T10:46:35.836Z,30.90
2022-12-04T10:49:08.954Z,28.87
2022-12-04T10:58:18.714Z,28.20
2022-12-04T11:00:47.464Z,27.53
2022-12-04T11:03:26.052Z,29.30
2022-12-04T11:05:57.742Z,26.30
2022-12-04T11:08:28.743Z,26.93
2022-12-04T11:10:58.576Z,25.03
2022-12-04T11:13:26.123Z,26.77
2022-12-04T11:15:55.592Z,25.50
2022-12-04T11:18:25.469Z,28.00
2022-12-04T11:20:56.680Z,28.27
2022-12-04T11:23:24.644Z,28.60
2022-12-04T11:25:53.603Z,29.57
2022-12-04T11:28:40.150Z,26.80
2022-12-04T11:31:10.637Z,26.00
2022-12-04T11:33:41.523Z,27.40
2022-12-04T11:36:20.356Z,27.73
2022-12-04T11:38:48.019Z,29.33
2022-12-04T11:41:26.778Z,28.67
2022-12-04T11:43:59.593Z,26.87
2022-12-04T11:46:29.605Z,29.40
2022-12-04T11:48:57.097Z,26.40
2022-12-04T11:51:35.724Z,28.90
2022-12-04T11:54:09.060Z,28.70
2022-12-04T11:56:39.240Z,28.27
2022-12-04T11:59:29.213Z,28.47
2022-12-04T12:02:00.788Z,30.60
2022-12-04T12:04:55.906Z,29.23
2022-12-04T12:07:34.377Z,29.30
2022-12-04T12:10:05.850Z,29.77
2022-12-04T12:12:40.772Z,31.40
2022-12-04T12:15:16.256Z,29.87
2022-12-04T12:17:47.572Z,30.17
2022-12-04T12:20:18.210Z,28.83
2022-12-04T12:23:09.390Z,30.63
2022-12-04T12:25:46.133Z,28.57
2022-12-04T12:28:30.365Z,26.40
2022-12-04T12:31:21.356Z,28.20
2022-12-04T12:33:53.975Z,27.90
2022-12-04T12:36:23.035Z,24.80
2022-12-04T12:38:54.759Z,25.53
2022-12-04T12:41:24.917Z,28.90
2022-12-04T12:43:59.850Z,29.73
2022-12-04T12:46:31.007Z,28.83
2022-12-04T12:49:02.335Z,27.50
2022-12-04T12:51:35.087Z,28.63
2022-12-04T12:54:12.520Z,27.77
2022-12-04T12:56:47.821Z,28.63
2022-12-04T12:59:20.900Z,27.77
2022-12-04T13:01:55.949Z,28.80
2022-12-04T13:04:31.391Z,27.63
2022-12-04T13:07:05.958Z,28.43
2022-12-04T13:09:37.811Z,26.20
2022-12-04T13:12:10.476Z,28.73
2022-12-04T13:14:38.091Z,27.43
2022-12-04T13:17:09.526Z,27.30
2022-12-04T13:19:43.407Z,28.80
2022-12-04T13:22:17.734Z,28.20
2022-12-04T13:25:07.275Z,29.80
2022-12-04T13:27:42.679Z,27.07
2022-12-04T13:30:15.338Z,29.17
2022-12-04T13:33:10.596Z,29.57
2022-12-04T13:35:50.872Z,27.43
2022-12-04T13:38:25.800Z,28.90
2022-12-04T13:40:55.461Z,29.80
2022-12-04T13:43:31.264Z,27.93
2022-12-04T13:46:00.350Z,29.23
2022-12-04T13:48:35.111Z,28.83
2022-12-04T13:51:05.608Z,28.47
2022-12-04T13:53:37.126Z,28.87
2022-12-04T13:56:09.567Z,29.13
2022-12-04T13:58:38.931Z,28.13
2022-12-04T14:01:13.004Z,27.63
2022-12-04T14:03:47.634Z,26.73
2022-12-04T14:06:24.089Z,27.73
2022-12-04T14:08:56.674Z,25.83
2022-12-04T14:11:25.614Z,27.63
2022-12-04T14:13:54.923Z,29.00
2022-12-04T14:16:25.510Z,26.93
2022-12-04T14:18:54.903Z,27.40
2022-12-04T14:21:22.510Z,28.47
2022-12-04T14:23:50.827Z,27.90
2022-12-04T14:26:37.268Z,27.77
2022-12-04T14:29:56.199Z,26.60
2022-12-04T14:32:27.079Z,26.60
2022-12-04T14:34:55.554Z,26.73
2022-12-04T14:37:28.036Z,27.43
2022-12-04T14:39:56.594Z,26.40
2022-12-04T14:42:27.522Z,26.20
2022-12-04T14:44:57.339Z,27.30
2022-12-04T14:47:39.867Z,30.20
2022-12-04T14:50:16.875Z,27.83
2022-12-04T14:52:46.684Z,27.87
2022-12-04T14:55:19.164Z,26.17
2022-12-04T14:57:52.745Z,26.97
2022-12-04T15:00:23.198Z,26.90
2022-12-04T15:02:53.323Z,28.27
2022-12-04T15:05:23.987Z,27.70
2022-12-04T15:07:54.612Z,26.83
2022-12-04T15:10:41.526Z,26.37
2022-12-04T15:13:10.907Z,25.70
2022-12-04T15:15:39.681Z,28.23
2022-12-04T15:18:13.838Z,29.00
2022-12-04T15:20:44.241Z,25.93
2022-12-04T15:23:14.668Z,26.93
2022-12-04T15:25:45.656Z,27.90
2022-12-04T15:28:18.458Z,27.57
2022-12-04T15:30:46.496Z,27.37
2022-12-04T15:33:21.457Z,27.57
2022-12-04T15:35:51.824Z,26.47
2022-12-04T15:38:19.887Z,27.03
2022-12-04T15:40:52.575Z,25.03
2022-12-04T15:43:29.646Z,25.50
2022-12-04T15:45:57.777Z,26.73
2022-12-04T15:48:29.965Z,25.47
2022-12-04T15:51:02.617Z,24.87
2022-12-04T15:53:32.835Z,24.40
2022-12-04T15:56:03.127Z,25.30
2022-12-04T15:58:33.480Z,25.97
2022-12-04T16:01:02.731Z,22.70
2022-12-04T16:03:32.108Z,24.77
2022-12-04T16:06:08.435Z,26.03
2022-12-04T16:08:37.463Z,24.10
2022-12-04T16:11:06.968Z,24.83
2022-12-04T16:13:38.090Z,23.33
2022-12-04T16:16:07.589Z,23.60
2022-12-04T16:18:36.081Z,25.00
2022-12-04T16:21:03.631Z,23.20
2022-12-04T16:23:33.084Z,22.23
2022-12-04T16:26:00.573Z,23.57
2022-12-04T16:28:28.029Z,24.93
2022-12-04T16:30:56.906Z,23.37
2022-12-04T16:33:24.395Z,24.00
2022-12-04T16:35:51.837Z,23.33
2022-12-04T16:38:20.288Z,25.07
2022-12-04T16:40:48.940Z,23.47
2022-12-04T16:43:18.095Z,24.10
2022-12-04T16:45:47.475Z,23.33
2022-12-04T16:48:16.531Z,23.60
2022-12-04T16:50:44.092Z,24.43
2022-12-04T16:53:14.632Z,23.37
2022-12-04T16:55:45.166Z,22.87
2022-12-04T16:58:12.678Z,21.83
2022-12-04T17:00:43.348Z,21.83
2022-12-04T17:03:13.008Z,23.53
2022-12-04T17:05:41.777Z,22.80
2022-12-04T17:08:09.357Z,24.20
2022-12-04T17:10:36.792Z,23.57
2022-12-04T17:13:04.558Z,23.20
2022-12-04T17:15:32.012Z,20.93
2022-12-04T17:17:59.571Z,22.00
2022-12-04T17:20:27.044Z,22.13
2022-12-04T17:22:55.923Z,23.10
2022-12-04T17:25:24.864Z,23.23
2022-12-04T17:27:53.015Z,21.00
2022-12-04T17:30:20.695Z,22.33
2022-12-04T17:32:49.093Z,23.47
2022-12-04T17:35:16.752Z,23.37
2022-12-04T17:37:44.315Z,21.40
2022-12-04T17:40:14.246Z,24.20
2022-12-04T17:42:42.349Z,22.17
2022-12-04T17:45:11.454Z,23.40
2022-12-04T17:47:43.774Z,21.50
2022-12-04T17:50:11.752Z,22.27
2022-12-04T17:52:39.216Z,22.40
2022-12-04T17:55:09.077Z,25.00
2022-12-04T17:57:37.909Z,24.00
2022-12-04T18:00:06.787Z,25.43
2022-12-04T18:02:41.349Z,25.70
2022-12-04T18:05:11.634Z,24.57
2022-12-04T18:07:39.284Z,24.57
2022-12-04T18:10:08.232Z,23.07
2022-12-04T18:12:35.766Z,23.10
2022-12-04T18:15:05.291Z,23.33
2022-12-04T18:17:32.869Z,21.47
2022-12-04T18:20:04.971Z,23.27
2022-12-04T18:22:33.012Z,22.80
2022-12-04T18:25:00.511Z,23.77
2022-12-04T18:27:27.939Z,23.60
2022-12-04T18:29:55.702Z,22.77
2022-12-04T18:32:26.825Z,24.37
2022-12-04T18:34:54.431Z,22.70
2022-12-04T18:37:21.847Z,23.17
2022-12-04T20:43:31.782Z,21.67
2022-12-04T20:46:02.418Z,22.20
2022-12-04T20:48:30.029Z,22.50
2022-12-04T20:50:57.472Z,21.63
2022-12-04T20:53:24.930Z,21.53
2022-12-04T21:02:13.824Z,23.00
2022-12-04T21:04:41.681Z,21.23
2022-12-04T21:07:37.041Z,21.67
2022-12-04T21:13:46.748Z,21.87
2022-12-04T21:16:14.278Z,22.13
2022-12-04T21:18:45.677Z,21.57
2022-12-04T21:21:13.155Z,22.03
2022-12-04T21:23:40.793Z,22.17
2022-12-04T21:26:08.374Z,21.67
2022-12-04T21:28:35.834Z,22.47
2022-12-04T21:31:04.486Z,22.50
2022-12-04T21:33:32.956Z,22.03
2022-12-04T21:36:04.037Z,21.20
2022-12-04T21:38:33.625Z,22.53
2022-12-04T21:41:01.202Z,20.57
2022-12-04T21:43:29.323Z,21.43
2022-12-04T21:45:58.110Z,20.97
2022-12-04T21:48:25.667Z,22.53
2022-12-04T21:50:53.129Z,22.43
2022-12-04T21:53:22.273Z,21.63
2022-12-04T21:55:51.180Z,23.27
2022-12-04T21:58:18.911Z,23.17
2022-12-04T22:00:46.541Z,23.13
2022-12-04T22:03:14.493Z,22.90
2022-12-04T22:05:42.160Z,23.63
2022-12-04T22:08:11.009Z,21.30
2022-12-04T22:10:42.871Z,23.47
2022-12-04T22:13:10.539Z,22.67
2022-12-04T22:15:39.033Z,24.07
2022-12-04T22:18:06.738Z,23.10
2022-12-04T22:20:34.393Z,23.23
2022-12-04T22:23:03.047Z,23.00
2022-12-04T22:25:31.050Z,23.30
2022-12-04T22:28:00.180Z,23.07
2022-12-04T22:30:28.287Z,21.87
2022-12-04T22:32:55.726Z,21.13
2022-12-04T22:35:23.210Z,22.33
2022-12-04T22:37:50.682Z,22.40
2022-12-04T22:40:18.351Z,22.13
2022-12-04T22:42:46.050Z,22.07
2022-12-04T22:45:15.096Z,22.17
2022-12-04T22:47:42.714Z,21.90
2022-12-04T22:50:10.572Z,21.77
2022-12-04T22:52:37.997Z,22.30
2022-12-04T22:55:06.251Z,22.07
2022-12-04T22:57:35.099Z,23.20
2022-12-04T23:00:03.956Z,21.57
2022-12-04T23:02:33.477Z,22.43
2022-12-04T23:05:00.968Z,22.83
2022-12-04T23:07:28.472Z,21.73
2022-12-04T23:09:56.451Z,23.47
2022-12-04T23:12:25.240Z,21.37
2022-12-04T23:14:52.709Z,22.43
2022-12-04T23:17:20.448Z,21.20
2022-12-04T23:19:49.200Z,21.60
2022-12-04T23:22:16.613Z,21.20
2022-12-04T23:24:44.091Z,21.77
2022-12-04T23:27:11.540Z,22.83
2022-12-04T23:29:54.454Z,22.33
2022-12-04T23:32:21.923Z,23.10
2022-12-04T23:34:52.823Z,21.83
2022-12-04T23:37:20.323Z,22.90
2022-12-04T23:39:47.744Z,23.57
2022-12-04T23:42:15.150Z,24.43
2022-12-04T23:44:42.749Z,23.60
2022-12-04T23:47:10.211Z,23.27
2022-12-04T23:49:37.676Z,23.37
2022-12-04T23:52:06.502Z,24.27
2022-12-04T23:54:35.822Z,23.70
2022-12-04T23:57:03.273Z,22.80
2022-12-04T23:59:30.728Z,23.60
